DAL1136 KOMA-KATL
Flight info
| Callsign | DAL1136 |
|---|---|
| Flight time | N/A |
| Altitude | 37000 |
| Route | OVR SAAGS FAM HITMN NEWBB IHAVE MTHEW CHPPR1 |
| Aircraft | A320/M-SDE3FGHIRWY/LB1 |
Departure
| Time | 2026-04-29 01:09 |
|---|---|
| Airport | Eppley Airfield (KOMA) |
Arrival
| Time | N/A |
|---|---|
| Airport | Hartsfield Jackson Atlanta International Airport (KATL) |
| Time | Latitude | Longitude | Altitude | Speed | Heading |
|---|---|---|---|---|---|
| 2026-04-29 00:36 | 41.29817 | -95.89771 | 985 ft | 0 kts | 266° |
| 2026-04-29 00:58 | 41.29817 | -95.89768 | 985 ft | 2 kts | 266° |
| 2026-04-29 00:58 | 41.29821 | -95.89734 | 1001 ft | 4 kts | 248° |
| 2026-04-29 00:58 | 41.29835 | -95.89703 | 989 ft | 4 kts | 221° |
| 2026-04-29 00:58 | 41.29849 | -95.89691 | 990 ft | 4 kts | 192° |
| 2026-04-29 00:59 | 41.29856 | -95.89689 | 994 ft | 0 kts | 180° |
| 2026-04-29 01:03 | 41.29831 | -95.89689 | 989 ft | 8 kts | 180° |
| 2026-04-29 01:03 | 41.29791 | -95.89647 | 988 ft | 13 kts | 118° |
| 2026-04-29 01:04 | 41.29671 | -95.89609 | 987 ft | 21 kts | 178° |
| 2026-04-29 01:04 | 41.29531 | -95.89608 | 987 ft | 20 kts | 180° |
| 2026-04-29 01:04 | 41.29392 | -95.89608 | 987 ft | 20 kts | 181° |
| 2026-04-29 01:04 | 41.29251 | -95.89610 | 989 ft | 20 kts | 180° |
| 2026-04-29 01:05 | 41.29123 | -95.89597 | 989 ft | 16 kts | 148° |
| 2026-04-29 01:05 | 41.29107 | -95.89469 | 985 ft | 13 kts | 89° |
| 2026-04-29 01:05 | 41.29108 | -95.89352 | 985 ft | 12 kts | 91° |
| 2026-04-29 01:05 | 41.29107 | -95.89233 | 985 ft | 12 kts | 90° |
| 2026-04-29 01:06 | 41.29107 | -95.89070 | 984 ft | 23 kts | 90° |
| 2026-04-29 01:06 | 41.29133 | -95.88885 | 991 ft | 18 kts | 40° |
| 2026-04-29 01:06 | 41.29193 | -95.88759 | 988 ft | 15 kts | 54° |
| 2026-04-29 01:06 | 41.29221 | -95.88706 | 988 ft | 0 kts | 54° |
| 2026-04-29 01:07 | 41.29223 | -95.88703 | 984 ft | 3 kts | 54° |
| 2026-04-29 01:07 | 41.29252 | -95.88651 | 986 ft | 7 kts | 49° |
| 2026-04-29 01:08 | 41.29298 | -95.88634 | 988 ft | 7 kts | 345° |
| 2026-04-29 01:08 | 41.29318 | -95.88647 | 983 ft | 0 kts | 326° |
| 2026-04-29 01:08 | 41.29421 | -95.88746 | 991 ft | 52 kts | 324° |
| 2026-04-29 01:08 | 41.29900 | -95.89202 | 989 ft | 116 kts | 324° |
| 2026-04-29 01:09 | 41.30600 | -95.89890 | 1002 ft | 159 kts | 322° |
| 2026-04-29 01:09 | 41.31494 | -95.90740 | 1625 ft | 156 kts | 325° |
| 2026-04-29 01:09 | 41.32369 | -95.91600 | 2348 ft | 155 kts | 324° |
| 2026-04-29 01:09 | 41.33232 | -95.92496 | 2863 ft | 165 kts | 324° |
| 2026-04-29 01:10 | 41.34196 | -95.93503 | 3088 ft | 187 kts | 324° |
| 2026-04-29 01:10 | 41.35300 | -95.94605 | 3371 ft | 207 kts | 331° |
| 2026-04-29 01:10 | 41.36733 | -95.95116 | 3666 ft | 229 kts | 3° |
| 2026-04-29 01:10 | 41.38275 | -95.94288 | 4102 ft | 252 kts | 41° |
| 2026-04-29 01:11 | 41.39142 | -95.92288 | 4838 ft | 264 kts | 77° |
| 2026-04-29 01:11 | 41.38977 | -95.89799 | 5596 ft | 275 kts | 113° |
| 2026-04-29 01:11 | 41.37952 | -95.87666 | 6338 ft | 281 kts | 133° |
| 2026-04-29 01:11 | 41.36574 | -95.85804 | 7125 ft | 283 kts | 140° |
| 2026-04-29 01:12 | 41.35093 | -95.84040 | 7901 ft | 287 kts | 141° |
| 2026-04-29 01:12 | 41.33596 | -95.82248 | 8653 ft | 292 kts | 140° |
| 2026-04-29 01:12 | 41.32107 | -95.80375 | 9396 ft | 297 kts | 138° |
| 2026-04-29 01:12 | 41.30625 | -95.78419 | 10122 ft | 302 kts | 137° |
| 2026-04-29 01:13 | 41.29103 | -95.76346 | 10410 ft | 324 kts | 136° |
| 2026-04-29 01:13 | 41.27490 | -95.74100 | 10633 ft | 346 kts | 136° |
| 2026-04-29 01:13 | 41.25821 | -95.71738 | 11164 ft | 355 kts | 136° |
| 2026-04-29 01:13 | 41.24123 | -95.69319 | 11821 ft | 360 kts | 136° |
| 2026-04-29 01:14 | 41.22404 | -95.66865 | 12503 ft | 364 kts | 136° |
| 2026-04-29 01:14 | 41.20686 | -95.64419 | 13165 ft | 368 kts | 137° |
| 2026-04-29 01:14 | 41.18998 | -95.62032 | 13795 ft | 373 kts | 137° |
| 2026-04-29 01:14 | 41.17212 | -95.59520 | 14377 ft | 377 kts | 137° |
| 2026-04-29 01:15 | 41.15508 | -95.57121 | 14937 ft | 380 kts | 138° |
| 2026-04-29 01:15 | 41.13682 | -95.54549 | 15519 ft | 384 kts | 138° |
| 2026-04-29 01:15 | 41.11851 | -95.51973 | 16101 ft | 387 kts | 138° |
| 2026-04-29 01:15 | 41.09993 | -95.49359 | 16674 ft | 390 kts | 139° |
| 2026-04-29 01:16 | 41.08123 | -95.46734 | 17238 ft | 394 kts | 139° |
| 2026-04-29 01:16 | 41.06229 | -95.44082 | 17801 ft | 398 kts | 139° |
| 2026-04-29 01:16 | 41.04310 | -95.41400 | 18363 ft | 401 kts | 139° |
| 2026-04-29 01:16 | 41.02381 | -95.38704 | 18847 ft | 405 kts | 139° |
| 2026-04-29 01:17 | 41.00433 | -95.35982 | 19321 ft | 409 kts | 139° |
| 2026-04-29 01:17 | 40.98468 | -95.33234 | 19793 ft | 413 kts | 139° |
| 2026-04-29 01:17 | 40.96480 | -95.30457 | 20267 ft | 417 kts | 139° |
| 2026-04-29 01:17 | 40.94478 | -95.27666 | 20742 ft | 420 kts | 139° |
| 2026-04-29 01:18 | 40.92455 | -95.24849 | 21216 ft | 424 kts | 139° |
| 2026-04-29 01:18 | 40.88356 | -95.19145 | 22155 ft | 432 kts | 139° |
| 2026-04-29 01:18 | 40.86305 | -95.16298 | 22603 ft | 435 kts | 139° |
| 2026-04-29 01:19 | 40.84202 | -95.13381 | 23065 ft | 439 kts | 140° |
| 2026-04-29 01:19 | 40.82086 | -95.10455 | 23508 ft | 442 kts | 140° |
| 2026-04-29 01:19 | 40.79952 | -95.07506 | 23899 ft | 445 kts | 140° |
| 2026-04-29 01:19 | 40.77802 | -95.04535 | 24252 ft | 448 kts | 140° |
| 2026-04-29 01:20 | 40.75642 | -95.01552 | 24602 ft | 451 kts | 140° |
| 2026-04-29 01:20 | 40.73488 | -94.98574 | 24952 ft | 454 kts | 140° |
| 2026-04-29 01:20 | 40.71282 | -94.95528 | 25299 ft | 456 kts | 140° |
| 2026-04-29 01:20 | 40.69086 | -94.92495 | 25638 ft | 459 kts | 140° |
| 2026-04-29 01:21 | 40.66869 | -94.89439 | 25966 ft | 461 kts | 140° |
| 2026-04-29 01:21 | 40.64676 | -94.86420 | 26288 ft | 463 kts | 140° |
| 2026-04-29 01:21 | 40.62442 | -94.83347 | 26614 ft | 465 kts | 140° |
| 2026-04-29 01:21 | 40.60192 | -94.80260 | 26935 ft | 468 kts | 140° |
| 2026-04-29 01:22 | 40.57935 | -94.77169 | 27254 ft | 470 kts | 140° |
| 2026-04-29 01:22 | 40.55663 | -94.74061 | 27558 ft | 472 kts | 140° |
| 2026-04-29 01:22 | 40.53381 | -94.70940 | 27862 ft | 474 kts | 140° |
| 2026-04-29 01:22 | 40.51085 | -94.67805 | 28156 ft | 477 kts | 140° |
| 2026-04-29 01:23 | 40.48777 | -94.64657 | 28445 ft | 479 kts | 141° |
| 2026-04-29 01:23 | 40.46462 | -94.61502 | 28731 ft | 482 kts | 141° |
| 2026-04-29 01:23 | 40.44131 | -94.58324 | 29005 ft | 484 kts | 141° |
| 2026-04-29 01:23 | 40.41789 | -94.55131 | 29261 ft | 486 kts | 141° |
| 2026-04-29 01:24 | 40.39429 | -94.51918 | 29527 ft | 489 kts | 141° |
| 2026-04-29 01:24 | 40.37066 | -94.48705 | 29780 ft | 491 kts | 141° |
| 2026-04-29 01:24 | 40.34689 | -94.45480 | 30026 ft | 493 kts | 141° |
| 2026-04-29 01:24 | 40.32297 | -94.42243 | 30242 ft | 495 kts | 141° |
| 2026-04-29 01:25 | 40.29897 | -94.38996 | 30424 ft | 497 kts | 141° |
| 2026-04-29 01:25 | 40.27483 | -94.35737 | 30597 ft | 499 kts | 141° |
| 2026-04-29 01:25 | 40.25060 | -94.32467 | 30775 ft | 501 kts | 141° |
| 2026-04-29 01:25 | 40.22625 | -94.29185 | 30957 ft | 503 kts | 142° |
| 2026-04-29 01:26 | 40.20191 | -94.25905 | 31217 ft | 503 kts | 142° |
| 2026-04-29 01:26 | 40.17756 | -94.22625 | 31459 ft | 503 kts | 142° |
| 2026-04-29 01:26 | 40.15314 | -94.19339 | 31704 ft | 503 kts | 142° |
| 2026-04-29 01:26 | 40.12909 | -94.16103 | 31941 ft | 503 kts | 142° |
| 2026-04-29 01:27 | 40.10465 | -94.12820 | 32189 ft | 503 kts | 142° |
| 2026-04-29 01:27 | 40.08024 | -94.09546 | 32441 ft | 503 kts | 142° |
| 2026-04-29 01:27 | 40.05578 | -94.06273 | 32689 ft | 503 kts | 142° |
| 2026-04-29 01:27 | 40.03128 | -94.03003 | 32949 ft | 503 kts | 143° |
| 2026-04-29 01:28 | 40.00679 | -93.99736 | 33207 ft | 503 kts | 143° |
| 2026-04-29 01:28 | 39.98236 | -93.96479 | 33457 ft | 503 kts | 143° |
| 2026-04-29 01:28 | 39.95793 | -93.93221 | 33717 ft | 502 kts | 143° |
| 2026-04-29 01:28 | 39.93343 | -93.89955 | 33980 ft | 502 kts | 143° |
| 2026-04-29 01:29 | 39.90907 | -93.86717 | 34201 ft | 501 kts | 143° |
| 2026-04-29 01:29 | 39.88452 | -93.83461 | 34420 ft | 501 kts | 143° |
| 2026-04-29 01:29 | 39.86014 | -93.80232 | 34623 ft | 501 kts | 143° |
| 2026-04-29 01:29 | 39.83597 | -93.77029 | 34809 ft | 501 kts | 143° |
| 2026-04-29 01:30 | 39.81235 | -93.73896 | 34988 ft | 501 kts | 143° |
| 2026-04-29 01:30 | 39.78796 | -93.70664 | 35164 ft | 502 kts | 143° |
| 2026-04-29 01:30 | 39.76353 | -93.67429 | 35344 ft | 501 kts | 143° |
| 2026-04-29 01:30 | 39.73903 | -93.64194 | 35509 ft | 502 kts | 143° |
| 2026-04-29 01:31 | 39.71454 | -93.60965 | 35675 ft | 501 kts | 143° |
| 2026-04-29 01:31 | 39.69000 | -93.57735 | 35847 ft | 501 kts | 143° |
| 2026-04-29 01:31 | 39.66548 | -93.54510 | 36018 ft | 501 kts | 143° |
| 2026-04-29 01:31 | 39.64102 | -93.51295 | 36191 ft | 501 kts | 143° |
| 2026-04-29 01:32 | 39.61654 | -93.48083 | 36345 ft | 501 kts | 143° |
| 2026-04-29 01:32 | 39.59203 | -93.44868 | 36494 ft | 501 kts | 143° |
| 2026-04-29 01:32 | 39.56751 | -93.41661 | 36637 ft | 501 kts | 144° |
| 2026-04-29 01:32 | 39.54332 | -93.38499 | 36790 ft | 500 kts | 144° |
| 2026-04-29 01:33 | 39.51888 | -93.35305 | 36959 ft | 500 kts | 144° |
| 2026-04-29 01:33 | 39.49438 | -93.32103 | 37023 ft | 500 kts | 144° |
| 2026-04-29 01:33 | 39.44860 | -93.25222 | 37029 ft | 511 kts | 134° |
| 2026-04-29 01:34 | 39.40691 | -93.17770 | 37027 ft | 511 kts | 134° |
| 2026-04-29 01:34 | 39.36560 | -93.10427 | 37031 ft | 511 kts | 134° |
| 2026-04-29 01:35 | 39.32367 | -93.03017 | 37017 ft | 510 kts | 134° |
| 2026-04-29 01:35 | 39.28173 | -92.95620 | 37028 ft | 511 kts | 134° |
| 2026-04-29 01:36 | 39.23979 | -92.88219 | 37021 ft | 511 kts | 134° |
| 2026-04-29 01:36 | 39.19783 | -92.80818 | 37017 ft | 510 kts | 135° |
| 2026-04-29 01:37 | 39.15613 | -92.73499 | 37019 ft | 510 kts | 135° |
| 2026-04-29 01:37 | 39.11448 | -92.66213 | 37021 ft | 509 kts | 135° |
| 2026-04-29 01:38 | 39.07256 | -92.58873 | 37025 ft | 509 kts | 135° |
| 2026-04-29 01:38 | 39.03060 | -92.51547 | 37025 ft | 508 kts | 135° |
| 2026-04-29 01:39 | 38.98856 | -92.44246 | 37026 ft | 507 kts | 135° |
| 2026-04-29 01:39 | 38.94669 | -92.36985 | 37021 ft | 507 kts | 135° |
| 2026-04-29 01:40 | 38.90474 | -92.29710 | 37018 ft | 506 kts | 135° |
| 2026-04-29 01:40 | 38.86283 | -92.22464 | 37027 ft | 505 kts | 136° |
| 2026-04-29 01:41 | 38.82106 | -92.15269 | 37035 ft | 505 kts | 136° |
| 2026-04-29 01:41 | 38.77912 | -92.08060 | 37028 ft | 504 kts | 136° |
| 2026-04-29 01:42 | 38.73725 | -92.00869 | 37007 ft | 503 kts | 136° |
| 2026-04-29 01:42 | 38.69533 | -91.93682 | 36997 ft | 503 kts | 136° |
| 2026-04-29 01:43 | 38.65346 | -91.86530 | 36983 ft | 502 kts | 136° |
| 2026-04-29 01:43 | 38.61152 | -91.79385 | 36966 ft | 501 kts | 136° |
| 2026-04-29 01:44 | 38.56987 | -91.72290 | 36952 ft | 501 kts | 136° |
| 2026-04-29 01:44 | 38.52800 | -91.65180 | 36929 ft | 500 kts | 136° |
| 2026-04-29 01:45 | 38.48612 | -91.58091 | 36947 ft | 500 kts | 136° |
| 2026-04-29 01:45 | 38.44420 | -91.51020 | 36945 ft | 499 kts | 136° |
| 2026-04-29 01:46 | 38.40938 | -91.45139 | 36965 ft | 499 kts | 136° |
| 2026-04-29 01:46 | 38.36758 | -91.38081 | 36987 ft | 498 kts | 136° |
| 2026-04-29 01:47 | 38.32574 | -91.31050 | 37014 ft | 497 kts | 136° |
| 2026-04-29 01:47 | 38.28393 | -91.24047 | 37036 ft | 496 kts | 136° |
| 2026-04-29 01:48 | 38.24208 | -91.17057 | 37037 ft | 495 kts | 136° |
| 2026-04-29 01:48 | 38.20037 | -91.10101 | 37038 ft | 494 kts | 136° |
| 2026-04-29 01:49 | 38.15891 | -91.03194 | 37028 ft | 493 kts | 136° |
| 2026-04-29 01:49 | 38.11741 | -90.96286 | 37006 ft | 491 kts | 136° |
| 2026-04-29 01:50 | 38.07591 | -90.89404 | 36982 ft | 490 kts | 136° |
| 2026-04-29 01:50 | 38.03452 | -90.82550 | 36971 ft | 488 kts | 136° |
| 2026-04-29 01:51 | 37.99325 | -90.75746 | 36953 ft | 485 kts | 136° |
| 2026-04-29 01:51 | 37.95211 | -90.68975 | 36953 ft | 483 kts | 136° |
| 2026-04-29 01:52 | 37.91121 | -90.62242 | 36942 ft | 481 kts | 136° |
| 2026-04-29 01:52 | 37.87054 | -90.55556 | 36932 ft | 478 kts | 136° |
| 2026-04-29 01:53 | 37.82995 | -90.48915 | 36928 ft | 476 kts | 136° |
| 2026-04-29 01:53 | 37.78981 | -90.42349 | 36928 ft | 474 kts | 136° |
| 2026-04-29 01:54 | 37.74949 | -90.35767 | 36931 ft | 472 kts | 136° |
| 2026-04-29 01:54 | 37.70929 | -90.29234 | 36937 ft | 470 kts | 136° |
| 2026-04-29 01:55 | 37.67042 | -90.22591 | 36943 ft | 476 kts | 128° |
| 2026-04-29 01:55 | 37.63962 | -90.15142 | 36945 ft | 478 kts | 124° |
| 2026-04-29 01:56 | 37.60915 | -90.07693 | 36955 ft | 476 kts | 125° |
| 2026-04-29 01:56 | 37.57860 | -90.00296 | 36955 ft | 475 kts | 125° |
| 2026-04-29 01:57 | 37.54832 | -89.92992 | 36954 ft | 473 kts | 125° |
| 2026-04-29 01:57 | 37.51805 | -89.85692 | 36953 ft | 473 kts | 125° |
| 2026-04-29 01:58 | 37.48766 | -89.78359 | 36958 ft | 472 kts | 125° |
| 2026-04-29 01:58 | 37.45729 | -89.71034 | 36961 ft | 471 kts | 126° |